sensor_id;sensor_type;location;lat;lon;timestamp;P1;durP1;ratioP1;P2;durP2;ratioP2
79284;SDS011;68734;50.452;11.636;2024-03-02T00:00:43;26.67;;;13.75;;
79284;SDS011;68734;50.452;11.636;2024-03-02T00:03:09;26.55;;;13.20;;
79284;SDS011;68734;50.452;11.636;2024-03-02T00:05:34;23.50;;;13.23;;
79284;SDS011;68734;50.452;11.636;2024-03-02T00:08:00;28.33;;;13.13;;
79284;SDS011;68734;50.452;11.636;2024-03-02T00:10:26;27.08;;;12.95;;
79284;SDS011;68734;50.452;11.636;2024-03-02T00:13:00;24.83;;;14.43;;
79284;SDS011;68734;50.452;11.636;2024-03-02T00:21:02;26.10;;;13.65;;
79284;SDS011;68734;50.452;11.636;2024-03-02T00:23:32;28.15;;;14.55;;
79284;SDS011;68734;50.452;11.636;2024-03-02T00:25:58;28.35;;;14.20;;
79284;SDS011;68734;50.452;11.636;2024-03-02T00:28:31;26.08;;;13.50;;
79284;SDS011;68734;50.452;11.636;2024-03-02T00:31:02;33.72;;;12.25;;
79284;SDS011;68734;50.452;11.636;2024-03-02T00:33:32;24.77;;;13.02;;
79284;SDS011;68734;50.452;11.636;2024-03-02T00:35:59;27.42;;;12.45;;
79284;SDS011;68734;50.452;11.636;2024-03-02T00:38:26;25.70;;;10.68;;
79284;SDS011;68734;50.452;11.636;2024-03-02T00:40:53;23.98;;;13.13;;
79284;SDS011;68734;50.452;11.636;2024-03-02T00:46:20;29.83;;;14.55;;
79284;SDS011;68734;50.452;11.636;2024-03-02T00:48:55;27.55;;;14.38;;
79284;SDS011;68734;50.452;11.636;2024-03-02T00:51:23;27.13;;;15.00;;
79284;SDS011;68734;50.452;11.636;2024-03-02T00:53:50;27.98;;;14.23;;
79284;SDS011;68734;50.452;11.636;2024-03-02T00:56:17;31.63;;;14.90;;
79284;SDS011;68734;50.452;11.636;2024-03-02T00:58:43;28.08;;;14.60;;
79284;SDS011;68734;50.452;11.636;2024-03-02T01:01:09;35.08;;;15.48;;
79284;SDS011;68734;50.452;11.636;2024-03-02T01:03:37;33.92;;;15.57;;
79284;SDS011;68734;50.452;11.636;2024-03-02T01:06:03;29.65;;;13.82;;
79284;SDS011;68734;50.452;11.636;2024-03-02T01:08:29;27.67;;;14.30;;
79284;SDS011;68734;50.452;11.636;2024-03-02T01:10:55;23.77;;;12.65;;
79284;SDS011;68734;50.452;11.636;2024-03-02T01:13:21;32.00;;;13.38;;
79284;SDS011;68734;50.452;11.636;2024-03-02T01:15:49;34.83;;;17.17;;
79284;SDS011;68734;50.452;11.636;2024-03-02T01:18:15;32.45;;;15.45;;
79284;SDS011;68734;50.452;11.636;2024-03-02T01:20:40;38.30;;;15.57;;
79284;SDS011;68734;50.452;11.636;2024-03-02T01:23:06;32.35;;;15.30;;
79284;SDS011;68734;50.452;11.636;2024-03-02T01:25:34;30.13;;;14.43;;
79284;SDS011;68734;50.452;11.636;2024-03-02T01:28:01;35.80;;;16.50;;
79284;SDS011;68734;50.452;11.636;2024-03-02T01:30:28;36.63;;;17.40;;
79284;SDS011;68734;50.452;11.636;2024-03-02T01:32:54;30.50;;;15.55;;
79284;SDS011;68734;50.452;11.636;2024-03-02T01:35:19;37.60;;;16.67;;
79284;SDS011;68734;50.452;11.636;2024-03-02T01:37:45;31.58;;;15.15;;
79284;SDS011;68734;50.452;11.636;2024-03-02T01:40:10;36.45;;;16.65;;
79284;SDS011;68734;50.452;11.636;2024-03-02T01:42:36;36.85;;;16.13;;
79284;SDS011;68734;50.452;11.636;2024-03-02T01:45:03;32.67;;;16.30;;
79284;SDS011;68734;50.452;11.636;2024-03-02T01:47:30;32.80;;;15.15;;
79284;SDS011;68734;50.452;11.636;2024-03-02T01:49:55;32.40;;;16.02;;
79284;SDS011;68734;50.452;11.636;2024-03-02T01:52:21;30.98;;;15.55;;
79284;SDS011;68734;50.452;11.636;2024-03-02T01:54:47;36.10;;;16.83;;
79284;SDS011;68734;50.452;11.636;2024-03-02T01:57:12;31.50;;;16.20;;
79284;SDS011;68734;50.452;11.636;2024-03-02T01:59:37;29.50;;;15.93;;
79284;SDS011;68734;50.452;11.636;2024-03-02T02:02:03;33.28;;;16.25;;
79284;SDS011;68734;50.452;11.636;2024-03-02T02:04:28;28.95;;;14.98;;
79284;SDS011;68734;50.452;11.636;2024-03-02T02:06:54;28.75;;;14.43;;
79284;SDS011;68734;50.452;11.636;2024-03-02T02:09:22;35.45;;;15.30;;
79284;SDS011;68734;50.452;11.636;2024-03-02T02:11:47;38.78;;;15.48;;
79284;SDS011;68734;50.452;11.636;2024-03-02T02:14:18;28.38;;;15.15;;
79284;SDS011;68734;50.452;11.636;2024-03-02T02:16:45;29.73;;;14.95;;
79284;SDS011;68734;50.452;11.636;2024-03-02T02:19:11;32.85;;;15.93;;
79284;SDS011;68734;50.452;11.636;2024-03-02T02:21:39;32.28;;;15.02;;
79284;SDS011;68734;50.452;11.636;2024-03-02T02:24:07;36.33;;;15.60;;
79284;SDS011;68734;50.452;11.636;2024-03-02T02:26:33;37.72;;;17.83;;
79284;SDS011;68734;50.452;11.636;2024-03-02T02:28:58;33.45;;;15.48;;
79284;SDS011;68734;50.452;11.636;2024-03-02T02:31:26;36.75;;;16.30;;
79284;SDS011;68734;50.452;11.636;2024-03-02T02:33:52;39.38;;;16.92;;
79284;SDS011;68734;50.452;11.636;2024-03-02T02:36:17;31.48;;;16.15;;
79284;SDS011;68734;50.452;11.636;2024-03-02T02:38:44;34.90;;;16.08;;
79284;SDS011;68734;50.452;11.636;2024-03-02T02:41:11;37.78;;;15.98;;
79284;SDS011;68734;50.452;11.636;2024-03-02T02:43:37;38.20;;;15.82;;
79284;SDS011;68734;50.452;11.636;2024-03-02T02:46:04;31.30;;;16.38;;
79284;SDS011;68734;50.452;11.636;2024-03-02T02:48:30;29.83;;;15.50;;
79284;SDS011;68734;50.452;11.636;2024-03-02T02:50:55;33.13;;;15.10;;
79284;SDS011;68734;50.452;11.636;2024-03-02T02:53:23;37.05;;;16.42;;
79284;SDS011;68734;50.452;11.636;2024-03-02T02:55:49;34.38;;;16.48;;
79284;SDS011;68734;50.452;11.636;2024-03-02T02:58:14;34.97;;;18.80;;
79284;SDS011;68734;50.452;11.636;2024-03-02T03:00:40;43.03;;;17.45;;
79284;SDS011;68734;50.452;11.636;2024-03-02T03:03:05;37.35;;;17.20;;
79284;SDS011;68734;50.452;11.636;2024-03-02T03:05:31;37.50;;;16.67;;
79284;SDS011;68734;50.452;11.636;2024-03-02T03:07:58;39.50;;;18.00;;
79284;SDS011;68734;50.452;11.636;2024-03-02T03:10:24;36.75;;;16.52;;
79284;SDS011;68734;50.452;11.636;2024-03-02T03:12:51;36.58;;;16.38;;
79284;SDS011;68734;50.452;11.636;2024-03-02T03:15:21;32.30;;;16.05;;
79284;SDS011;68734;50.452;11.636;2024-03-02T03:17:46;41.72;;;18.48;;
79284;SDS011;68734;50.452;11.636;2024-03-02T03:20:12;38.92;;;17.67;;
79284;SDS011;68734;50.452;11.636;2024-03-02T03:22:40;36.63;;;17.48;;
79284;SDS011;68734;50.452;11.636;2024-03-02T03:25:06;40.17;;;17.27;;
79284;SDS011;68734;50.452;11.636;2024-03-02T03:27:33;41.40;;;16.38;;
79284;SDS011;68734;50.452;11.636;2024-03-02T03:29:58;35.83;;;17.20;;
79284;SDS011;68734;50.452;11.636;2024-03-02T03:32:24;38.35;;;17.25;;
79284;SDS011;68734;50.452;11.636;2024-03-02T03:34:49;36.25;;;18.25;;
79284;SDS011;68734;50.452;11.636;2024-03-02T03:37:15;41.42;;;17.92;;
79284;SDS011;68734;50.452;11.636;2024-03-02T03:39:41;36.35;;;17.58;;
79284;SDS011;68734;50.452;11.636;2024-03-02T03:42:06;47.17;;;21.65;;
79284;SDS011;68734;50.452;11.636;2024-03-02T03:44:32;41.78;;;19.55;;
79284;SDS011;68734;50.452;11.636;2024-03-02T03:46:58;36.60;;;18.38;;
79284;SDS011;68734;50.452;11.636;2024-03-02T03:49:24;39.83;;;17.60;;
79284;SDS011;68734;50.452;11.636;2024-03-02T03:51:49;43.38;;;18.25;;
79284;SDS011;68734;50.452;11.636;2024-03-02T03:54:14;36.40;;;18.15;;
79284;SDS011;68734;50.452;11.636;2024-03-02T03:56:40;40.20;;;18.85;;
79284;SDS011;68734;50.452;11.636;2024-03-02T03:59:05;35.22;;;17.88;;
79284;SDS011;68734;50.452;11.636;2024-03-02T04:01:31;35.20;;;18.15;;
79284;SDS011;68734;50.452;11.636;2024-03-02T04:03:59;41.00;;;18.80;;
79284;SDS011;68734;50.452;11.636;2024-03-02T04:06:27;38.42;;;17.73;;
79284;SDS011;68734;50.452;11.636;2024-03-02T04:08:52;40.97;;;19.50;;
79284;SDS011;68734;50.452;11.636;2024-03-02T04:11:18;39.90;;;20.92;;
79284;SDS011;68734;50.452;11.636;2024-03-02T04:13:43;36.42;;;19.35;;
79284;SDS011;68734;50.452;11.636;2024-03-02T04:16:08;35.67;;;17.08;;
79284;SDS011;68734;50.452;11.636;2024-03-02T04:18:36;36.42;;;15.05;;
79284;SDS011;68734;50.452;11.636;2024-03-02T04:21:03;38.40;;;16.63;;
79284;SDS011;68734;50.452;11.636;2024-03-02T04:23:28;32.83;;;15.63;;
79284;SDS011;68734;50.452;11.636;2024-03-02T04:25:56;35.20;;;17.88;;
79284;SDS011;68734;50.452;11.636;2024-03-02T04:28:24;31.17;;;16.38;;
79284;SDS011;68734;50.452;11.636;2024-03-02T04:30:52;32.42;;;16.63;;
79284;SDS011;68734;50.452;11.636;2024-03-02T04:33:17;36.78;;;16.65;;
79284;SDS011;68734;50.452;11.636;2024-03-02T04:35:43;31.55;;;17.08;;
79284;SDS011;68734;50.452;11.636;2024-03-02T04:38:08;37.08;;;16.95;;
79284;SDS011;68734;50.452;11.636;2024-03-02T04:40:34;40.55;;;17.58;;
79284;SDS011;68734;50.452;11.636;2024-03-02T04:42:59;34.65;;;15.07;;
79284;SDS011;68734;50.452;11.636;2024-03-02T04:45:24;31.05;;;15.73;;
79284;SDS011;68734;50.452;11.636;2024-03-02T04:47:50;37.72;;;17.70;;
79284;SDS011;68734;50.452;11.636;2024-03-02T04:50:15;33.17;;;16.83;;
79284;SDS011;68734;50.452;11.636;2024-03-02T04:52:41;36.88;;;17.35;;
79284;SDS011;68734;50.452;11.636;2024-03-02T04:55:09;37.65;;;17.95;;
79284;SDS011;68734;50.452;11.636;2024-03-02T04:57:35;36.03;;;17.10;;
79284;SDS011;68734;50.452;11.636;2024-03-02T05:00:00;41.30;;;17.85;;
79284;SDS011;68734;50.452;11.636;2024-03-02T05:02:26;39.60;;;19.27;;
79284;SDS011;68734;50.452;11.636;2024-03-02T05:04:51;37.95;;;17.85;;
79284;SDS011;68734;50.452;11.636;2024-03-02T05:07:19;33.08;;;14.60;;
79284;SDS011;68734;50.452;11.636;2024-03-02T05:09:44;29.58;;;15.10;;
79284;SDS011;68734;50.452;11.636;2024-03-02T05:12:13;34.45;;;16.25;;
79284;SDS011;68734;50.452;11.636;2024-03-02T05:14:57;30.95;;;15.77;;
79284;SDS011;68734;50.452;11.636;2024-03-02T05:17:22;31.08;;;15.48;;
79284;SDS011;68734;50.452;11.636;2024-03-02T05:19:48;31.30;;;16.10;;
79284;SDS011;68734;50.452;11.636;2024-03-02T05:22:13;29.42;;;13.93;;
79284;SDS011;68734;50.452;11.636;2024-03-02T05:24:39;36.88;;;16.25;;
79284;SDS011;68734;50.452;11.636;2024-03-02T05:27:04;36.95;;;16.83;;
79284;SDS011;68734;50.452;11.636;2024-03-02T05:29:32;32.78;;;15.80;;
79284;SDS011;68734;50.452;11.636;2024-03-02T05:31:58;32.78;;;16.83;;
79284;SDS011;68734;50.452;11.636;2024-03-02T05:34:28;30.85;;;16.38;;
79284;SDS011;68734;50.452;11.636;2024-03-02T05:36:55;36.15;;;16.60;;
79284;SDS011;68734;50.452;11.636;2024-03-02T05:39:22;32.90;;;14.63;;
79284;SDS011;68734;50.452;11.636;2024-03-02T05:41:48;34.05;;;15.20;;
79284;SDS011;68734;50.452;11.636;2024-03-02T05:44:16;40.83;;;16.40;;
79284;SDS011;68734;50.452;11.636;2024-03-02T05:46:41;31.00;;;13.98;;
79284;SDS011;68734;50.452;11.636;2024-03-02T05:49:14;32.35;;;15.00;;
79284;SDS011;68734;50.452;11.636;2024-03-02T05:51:39;27.33;;;13.43;;
79284;SDS011;68734;50.452;11.636;2024-03-02T05:54:05;30.52;;;13.45;;
79284;SDS011;68734;50.452;11.636;2024-03-02T05:56:30;31.45;;;14.48;;
79284;SDS011;68734;50.452;11.636;2024-03-02T05:58:58;34.60;;;13.75;;
79284;SDS011;68734;50.452;11.636;2024-03-02T06:01:39;29.23;;;13.55;;
79284;SDS011;68734;50.452;11.636;2024-03-02T06:04:05;33.78;;;12.65;;
79284;SDS011;68734;50.452;11.636;2024-03-02T06:06:31;32.53;;;13.82;;
79284;SDS011;68734;50.452;11.636;2024-03-02T06:09:03;28.92;;;14.30;;
79284;SDS011;68734;50.452;11.636;2024-03-02T06:11:40;29.80;;;12.73;;
79284;SDS011;68734;50.452;11.636;2024-03-02T06:14:06;24.38;;;12.02;;
79284;SDS011;68734;50.452;11.636;2024-03-02T06:16:33;25.38;;;12.48;;
79284;SDS011;68734;50.452;11.636;2024-03-02T06:18:59;24.98;;;12.50;;
79284;SDS011;68734;50.452;11.636;2024-03-02T06:21:25;26.05;;;12.80;;
79284;SDS011;68734;50.452;11.636;2024-03-02T06:23:53;27.27;;;12.20;;
79284;SDS011;68734;50.452;11.636;2024-03-02T06:26:21;25.80;;;11.02;;
79284;SDS011;68734;50.452;11.636;2024-03-02T06:28:46;25.67;;;13.07;;
79284;SDS011;68734;50.452;11.636;2024-03-02T06:31:13;26.13;;;11.38;;
79284;SDS011;68734;50.452;11.636;2024-03-02T06:33:39;26.02;;;10.77;;
79284;SDS011;68734;50.452;11.636;2024-03-02T06:36:06;27.88;;;11.52;;
79284;SDS011;68734;50.452;11.636;2024-03-02T06:38:37;27.63;;;12.18;;
79284;SDS011;68734;50.452;11.636;2024-03-02T06:41:05;25.00;;;12.50;;
79284;SDS011;68734;50.452;11.636;2024-03-02T06:43:33;24.05;;;11.10;;
79284;SDS011;68734;50.452;11.636;2024-03-02T06:46:01;21.70;;;9.63;;
79284;SDS011;68734;50.452;11.636;2024-03-02T06:48:26;16.42;;;8.63;;
79284;SDS011;68734;50.452;11.636;2024-03-02T06:50:53;17.23;;;10.02;;
79284;SDS011;68734;50.452;11.636;2024-03-02T06:53:20;24.63;;;11.07;;
79284;SDS011;68734;50.452;11.636;2024-03-02T06:55:47;20.20;;;10.85;;
79284;SDS011;68734;50.452;11.636;2024-03-02T06:58:13;21.10;;;10.50;;
79284;SDS011;68734;50.452;11.636;2024-03-02T07:00:42;22.42;;;10.25;;
79284;SDS011;68734;50.452;11.636;2024-03-02T07:03:12;23.83;;;10.48;;
79284;SDS011;68734;50.452;11.636;2024-03-02T07:05:38;22.13;;;11.00;;
79284;SDS011;68734;50.452;11.636;2024-03-02T07:08:04;18.38;;;9.15;;
79284;SDS011;68734;50.452;11.636;2024-03-02T07:10:30;18.08;;;9.70;;
79284;SDS011;68734;50.452;11.636;2024-03-02T07:12:56;19.83;;;10.13;;
79284;SDS011;68734;50.452;11.636;2024-03-02T07:15:24;24.92;;;10.63;;
79284;SDS011;68734;50.452;11.636;2024-03-02T07:17:52;19.42;;;10.70;;
79284;SDS011;68734;50.452;11.636;2024-03-02T07:20:17;24.20;;;10.70;;
79284;SDS011;68734;50.452;11.636;2024-03-02T07:22:43;19.88;;;10.35;;
79284;SDS011;68734;50.452;11.636;2024-03-02T07:25:08;18.10;;;8.43;;
79284;SDS011;68734;50.452;11.636;2024-03-02T07:27:34;21.20;;;9.40;;
79284;SDS011;68734;50.452;11.636;2024-03-02T07:30:01;20.70;;;11.30;;
79284;SDS011;68734;50.452;11.636;2024-03-02T07:32:30;18.38;;;9.27;;
79284;SDS011;68734;50.452;11.636;2024-03-02T07:34:55;17.42;;;9.38;;
79284;SDS011;68734;50.452;11.636;2024-03-02T07:37:23;17.83;;;8.85;;
79284;SDS011;68734;50.452;11.636;2024-03-02T07:39:49;16.95;;;8.60;;
79284;SDS011;68734;50.452;11.636;2024-03-02T07:42:15;16.90;;;7.93;;
79284;SDS011;68734;50.452;11.636;2024-03-02T07:44:41;18.90;;;8.43;;
79284;SDS011;68734;50.452;11.636;2024-03-02T07:47:06;15.43;;;8.38;;
79284;SDS011;68734;50.452;11.636;2024-03-02T07:49:32;13.57;;;7.90;;
79284;SDS011;68734;50.452;11.636;2024-03-02T07:51:57;13.20;;;8.30;;
79284;SDS011;68734;50.452;11.636;2024-03-02T07:54:23;16.92;;;8.40;;
79284;SDS011;68734;50.452;11.636;2024-03-02T07:56:49;14.55;;;7.65;;
79284;SDS011;68734;50.452;11.636;2024-03-02T07:59:17;11.98;;;6.88;;
79284;SDS011;68734;50.452;11.636;2024-03-02T08:01:43;11.90;;;6.55;;
79284;SDS011;68734;50.452;11.636;2024-03-02T08:04:08;10.98;;;7.15;;
79284;SDS011;68734;50.452;11.636;2024-03-02T08:06:36;9.80;;;6.28;;
79284;SDS011;68734;50.452;11.636;2024-03-02T08:09:02;12.02;;;6.78;;
79284;SDS011;68734;50.452;11.636;2024-03-02T08:11:34;10.50;;;5.15;;
79284;SDS011;68734;50.452;11.636;2024-03-02T08:14:00;11.30;;;5.22;;
79284;SDS011;68734;50.452;11.636;2024-03-02T08:16:25;11.23;;;6.53;;
79284;SDS011;68734;50.452;11.636;2024-03-02T08:18:51;10.80;;;6.28;;
79284;SDS011;68734;50.452;11.636;2024-03-02T08:21:17;10.02;;;5.00;;
79284;SDS011;68734;50.452;11.636;2024-03-02T08:23:42;8.98;;;5.93;;
79284;SDS011;68734;50.452;11.636;2024-03-02T08:26:09;8.90;;;5.03;;
79284;SDS011;68734;50.452;11.636;2024-03-02T08:28:35;9.98;;;4.53;;
79284;SDS011;68734;50.452;11.636;2024-03-02T08:31:02;7.93;;;5.05;;
79284;SDS011;68734;50.452;11.636;2024-03-02T08:33:28;8.77;;;4.55;;
79284;SDS011;68734;50.452;11.636;2024-03-02T08:35:53;6.88;;;4.10;;
79284;SDS011;68734;50.452;11.636;2024-03-02T08:38:21;7.95;;;4.32;;
79284;SDS011;68734;50.452;11.636;2024-03-02T08:40:47;12.40;;;6.07;;
79284;SDS011;68734;50.452;11.636;2024-03-02T08:43:13;9.48;;;4.88;;
79284;SDS011;68734;50.452;11.636;2024-03-02T08:45:39;7.03;;;3.72;;
79284;SDS011;68734;50.452;11.636;2024-03-02T08:48:06;7.78;;;4.68;;
79284;SDS011;68734;50.452;11.636;2024-03-02T08:50:33;7.03;;;3.95;;
79284;SDS011;68734;50.452;11.636;2024-03-02T08:53:05;6.65;;;4.07;;
79284;SDS011;68734;50.452;11.636;2024-03-02T08:55:34;7.40;;;4.18;;
79284;SDS011;68734;50.452;11.636;2024-03-02T08:58:02;6.70;;;4.20;;
79284;SDS011;68734;50.452;11.636;2024-03-02T09:00:28;6.35;;;3.50;;
79284;SDS011;68734;50.452;11.636;2024-03-02T09:02:54;11.25;;;5.55;;
79284;SDS011;68734;50.452;11.636;2024-03-02T09:05:19;7.38;;;4.00;;
79284;SDS011;68734;50.452;11.636;2024-03-02T09:07:45;6.18;;;3.58;;
79284;SDS011;68734;50.452;11.636;2024-03-02T09:10:15;5.55;;;3.50;;
79284;SDS011;68734;50.452;11.636;2024-03-02T09:12:40;6.55;;;3.35;;
79284;SDS011;68734;50.452;11.636;2024-03-02T09:15:06;5.57;;;2.70;;
79284;SDS011;68734;50.452;11.636;2024-03-02T09:17:32;5.95;;;3.28;;
79284;SDS011;68734;50.452;11.636;2024-03-02T09:20:00;4.32;;;3.03;;
79284;SDS011;68734;50.452;11.636;2024-03-02T09:22:26;5.25;;;3.42;;
79284;SDS011;68734;50.452;11.636;2024-03-02T09:24:51;5.78;;;2.88;;
79284;SDS011;68734;50.452;11.636;2024-03-02T09:27:21;3.90;;;3.00;;
79284;SDS011;68734;50.452;11.636;2024-03-02T09:29:47;4.53;;;2.75;;
79284;SDS011;68734;50.452;11.636;2024-03-02T09:32:15;4.47;;;3.00;;
79284;SDS011;68734;50.452;11.636;2024-03-02T09:34:41;6.07;;;3.80;;
79284;SDS011;68734;50.452;11.636;2024-03-02T09:37:09;5.93;;;3.25;;
79284;SDS011;68734;50.452;11.636;2024-03-02T09:39:34;5.03;;;3.15;;
79284;SDS011;68734;50.452;11.636;2024-03-02T09:42:00;6.90;;;3.95;;
79284;SDS011;68734;50.452;11.636;2024-03-02T09:44:25;7.32;;;3.90;;
79284;SDS011;68734;50.452;11.636;2024-03-02T09:46:51;7.38;;;3.53;;
79284;SDS011;68734;50.452;11.636;2024-03-02T09:49:17;10.75;;;5.38;;
79284;SDS011;68734;50.452;11.636;2024-03-02T09:51:46;6.28;;;3.97;;
79284;SDS011;68734;50.452;11.636;2024-03-02T09:54:13;5.88;;;3.92;;
79284;SDS011;68734;50.452;11.636;2024-03-02T09:56:41;6.00;;;3.38;;
79284;SDS011;68734;50.452;11.636;2024-03-02T09:59:06;6.53;;;3.25;;
79284;SDS011;68734;50.452;11.636;2024-03-02T10:01:32;6.40;;;3.05;;
79284;SDS011;68734;50.452;11.636;2024-03-02T10:04:00;7.53;;;4.20;;
79284;SDS011;68734;50.452;11.636;2024-03-02T10:06:32;6.78;;;5.10;;
79284;SDS011;68734;50.452;11.636;2024-03-02T10:09:00;6.15;;;4.10;;
79284;SDS011;68734;50.452;11.636;2024-03-02T10:14:09;8.55;;;5.82;;
79284;SDS011;68734;50.452;11.636;2024-03-02T10:16:39;9.02;;;6.13;;
79284;SDS011;68734;50.452;11.636;2024-03-02T10:21:41;7.78;;;4.82;;
79284;SDS011;68734;50.452;11.636;2024-03-02T10:24:07;8.63;;;4.80;;
79284;SDS011;68734;50.452;11.636;2024-03-02T10:26:33;7.18;;;4.95;;
79284;SDS011;68734;50.452;11.636;2024-03-02T10:28:58;8.30;;;4.45;;
79284;SDS011;68734;50.452;11.636;2024-03-02T10:31:24;5.13;;;3.80;;
79284;SDS011;68734;50.452;11.636;2024-03-02T10:33:54;5.40;;;4.00;;
79284;SDS011;68734;50.452;11.636;2024-03-02T10:36:20;5.32;;;3.17;;
79284;SDS011;68734;50.452;11.636;2024-03-02T10:38:46;4.82;;;3.08;;
79284;SDS011;68734;50.452;11.636;2024-03-02T10:41:16;6.63;;;4.20;;
79284;SDS011;68734;50.452;11.636;2024-03-02T10:43:43;5.03;;;3.38;;
79284;SDS011;68734;50.452;11.636;2024-03-02T10:46:09;5.00;;;3.60;;
79284;SDS011;68734;50.452;11.636;2024-03-02T10:48:36;5.05;;;3.40;;
79284;SDS011;68734;50.452;11.636;2024-03-02T10:51:06;6.85;;;4.55;;
79284;SDS011;68734;50.452;11.636;2024-03-02T10:53:31;8.23;;;4.93;;
79284;SDS011;68734;50.452;11.636;2024-03-02T10:55:57;7.07;;;5.05;;
79284;SDS011;68734;50.452;11.636;2024-03-02T10:58:29;6.28;;;3.72;;
79284;SDS011;68734;50.452;11.636;2024-03-02T11:01:01;6.55;;;4.00;;
79284;SDS011;68734;50.452;11.636;2024-03-02T11:03:31;7.28;;;4.25;;
79284;SDS011;68734;50.452;11.636;2024-03-02T11:06:03;7.50;;;5.07;;
79284;SDS011;68734;50.452;11.636;2024-03-02T11:08:33;8.27;;;5.07;;
79284;SDS011;68734;50.452;11.636;2024-03-02T11:11:14;5.50;;;3.90;;
79284;SDS011;68734;50.452;11.636;2024-03-02T11:13:42;6.60;;;3.50;;
79284;SDS011;68734;50.452;11.636;2024-03-02T11:16:33;6.82;;;4.30;;
79284;SDS011;68734;50.452;11.636;2024-03-02T11:19:22;5.78;;;3.42;;
79284;SDS011;68734;50.452;11.636;2024-03-02T11:21:47;6.80;;;3.72;;
79284;SDS011;68734;50.452;11.636;2024-03-02T11:26:52;6.68;;;4.55;;
79284;SDS011;68734;50.452;11.636;2024-03-02T11:32:05;5.43;;;3.63;;
79284;SDS011;68734;50.452;11.636;2024-03-02T11:34:38;4.50;;;3.42;;
79284;SDS011;68734;50.452;11.636;2024-03-02T11:37:10;9.45;;;3.92;;
79284;SDS011;68734;50.452;11.636;2024-03-02T11:39:37;6.35;;;3.78;;
79284;SDS011;68734;50.452;11.636;2024-03-02T11:42:05;6.30;;;3.83;;
79284;SDS011;68734;50.452;11.636;2024-03-02T11:44:34;5.13;;;3.50;;
79284;SDS011;68734;50.452;11.636;2024-03-02T11:47:01;9.32;;;4.85;;
79284;SDS011;68734;50.452;11.636;2024-03-02T11:49:37;8.07;;;4.25;;
79284;SDS011;68734;50.452;11.636;2024-03-02T11:52:13;4.80;;;2.83;;
79284;SDS011;68734;50.452;11.636;2024-03-02T11:54:43;5.30;;;3.63;;
79284;SDS011;68734;50.452;11.636;2024-03-02T11:57:17;4.55;;;2.80;;
79284;SDS011;68734;50.452;11.636;2024-03-02T11:59:49;4.47;;;3.05;;
79284;SDS011;68734;50.452;11.636;2024-03-02T12:02:16;3.85;;;2.85;;
79284;SDS011;68734;50.452;11.636;2024-03-02T12:04:43;3.60;;;2.47;;
79284;SDS011;68734;50.452;11.636;2024-03-02T12:07:10;4.18;;;2.80;;
79284;SDS011;68734;50.452;11.636;2024-03-02T12:09:36;4.32;;;2.78;;
79284;SDS011;68734;50.452;11.636;2024-03-02T12:12:08;4.32;;;3.10;;
79284;SDS011;68734;50.452;11.636;2024-03-02T12:14:49;5.82;;;3.17;;
79284;SDS011;68734;50.452;11.636;2024-03-02T12:17:20;5.10;;;2.63;;
79284;SDS011;68734;50.452;11.636;2024-03-02T12:19:46;3.40;;;2.22;;
79284;SDS011;68734;50.452;11.636;2024-03-02T12:22:14;4.25;;;2.60;;
79284;SDS011;68734;50.452;11.636;2024-03-02T12:24:41;4.00;;;2.67;;
79284;SDS011;68734;50.452;11.636;2024-03-02T12:27:10;4.72;;;2.53;;
79284;SDS011;68734;50.452;11.636;2024-03-02T12:29:36;3.60;;;2.72;;
79284;SDS011;68734;50.452;11.636;2024-03-02T12:32:03;3.92;;;2.58;;
79284;SDS011;68734;50.452;11.636;2024-03-02T12:34:30;3.92;;;3.00;;
79284;SDS011;68734;50.452;11.636;2024-03-02T12:36:56;5.88;;;4.18;;
79284;SDS011;68734;50.452;11.636;2024-03-02T12:39:24;5.05;;;3.10;;
79284;SDS011;68734;50.452;11.636;2024-03-02T12:41:50;3.80;;;2.40;;
79284;SDS011;68734;50.452;11.636;2024-03-02T12:44:19;2.80;;;2.45;;
79284;SDS011;68734;50.452;11.636;2024-03-02T12:46:46;4.15;;;2.42;;
79284;SDS011;68734;50.452;11.636;2024-03-02T12:49:13;3.95;;;2.10;;
79284;SDS011;68734;50.452;11.636;2024-03-02T12:51:40;2.85;;;2.45;;
79284;SDS011;68734;50.452;11.636;2024-03-02T12:54:07;5.60;;;2.65;;
79284;SDS011;68734;50.452;11.636;2024-03-02T12:56:34;2.33;;;1.80;;
79284;SDS011;68734;50.452;11.636;2024-03-02T12:59:00;2.72;;;2.20;;
79284;SDS011;68734;50.452;11.636;2024-03-02T13:01:26;3.25;;;2.33;;
79284;SDS011;68734;50.452;11.636;2024-03-02T13:03:57;4.18;;;2.47;;
79284;SDS011;68734;50.452;11.636;2024-03-02T13:06:24;2.65;;;2.10;;
79284;SDS011;68734;50.452;11.636;2024-03-02T13:08:52;4.38;;;2.30;;
79284;SDS011;68734;50.452;11.636;2024-03-02T13:11:18;3.63;;;2.50;;
79284;SDS011;68734;50.452;11.636;2024-03-02T13:13:46;4.65;;;2.53;;
79284;SDS011;68734;50.452;11.636;2024-03-02T13:16:12;3.15;;;1.95;;
79284;SDS011;68734;50.452;11.636;2024-03-02T13:18:38;4.70;;;2.33;;
79284;SDS011;68734;50.452;11.636;2024-03-02T13:21:05;3.92;;;2.55;;
79284;SDS011;68734;50.452;11.636;2024-03-02T13:23:31;5.18;;;2.45;;
79284;SDS011;68734;50.452;11.636;2024-03-02T13:25:57;3.40;;;2.03;;
79284;SDS011;68734;50.452;11.636;2024-03-02T13:28:26;4.47;;;2.67;;
79284;SDS011;68734;50.452;11.636;2024-03-02T13:30:51;4.18;;;2.55;;
79284;SDS011;68734;50.452;11.636;2024-03-02T13:33:17;4.50;;;2.20;;
79284;SDS011;68734;50.452;11.636;2024-03-02T13:35:47;7.43;;;2.33;;
79284;SDS011;68734;50.452;11.636;2024-03-02T13:38:17;3.30;;;2.22;;
79284;SDS011;68734;50.452;11.636;2024-03-02T13:40:44;5.47;;;2.15;;
79284;SDS011;68734;50.452;11.636;2024-03-02T13:43:12;4.70;;;3.00;;
79284;SDS011;68734;50.452;11.636;2024-03-02T13:45:40;5.13;;;3.58;;
79284;SDS011;68734;50.452;11.636;2024-03-02T13:48:06;6.20;;;3.53;;
79284;SDS011;68734;50.452;11.636;2024-03-02T13:50:32;4.75;;;2.97;;
79284;SDS011;68734;50.452;11.636;2024-03-02T13:52:57;8.23;;;3.88;;
79284;SDS011;68734;50.452;11.636;2024-03-02T13:55:23;6.32;;;3.78;;
79284;SDS011;68734;50.452;11.636;2024-03-02T13:57:48;7.43;;;4.28;;
79284;SDS011;68734;50.452;11.636;2024-03-02T14:00:17;6.32;;;4.20;;
79284;SDS011;68734;50.452;11.636;2024-03-02T14:02:43;6.70;;;3.78;;
79284;SDS011;68734;50.452;11.636;2024-03-02T14:05:10;9.23;;;4.07;;
79284;SDS011;68734;50.452;11.636;2024-03-02T14:07:37;7.68;;;4.03;;
79284;SDS011;68734;50.452;11.636;2024-03-02T14:10:03;8.05;;;4.32;;
79284;SDS011;68734;50.452;11.636;2024-03-02T14:12:33;6.95;;;4.93;;
79284;SDS011;68734;50.452;11.636;2024-03-02T14:15:05;7.32;;;4.57;;
79284;SDS011;68734;50.452;11.636;2024-03-02T14:17:39;9.75;;;4.85;;
79284;SDS011;68734;50.452;11.636;2024-03-02T14:20:05;7.82;;;5.43;;
79284;SDS011;68734;50.452;11.636;2024-03-02T14:22:31;11.32;;;4.80;;
79284;SDS011;68734;50.452;11.636;2024-03-02T14:24:59;9.23;;;6.00;;
79284;SDS011;68734;50.452;11.636;2024-03-02T14:27:24;9.50;;;5.57;;
79284;SDS011;68734;50.452;11.636;2024-03-02T14:29:50;10.98;;;5.25;;
79284;SDS011;68734;50.452;11.636;2024-03-02T14:32:16;8.15;;;4.78;;
79284;SDS011;68734;50.452;11.636;2024-03-02T14:34:41;10.32;;;5.45;;
79284;SDS011;68734;50.452;11.636;2024-03-02T14:37:07;9.73;;;6.18;;
79284;SDS011;68734;50.452;11.636;2024-03-02T14:39:32;8.57;;;5.45;;